createdAt,value
2023-04-23T00:02:06.585Z,16.10
2023-04-23T00:04:38.505Z,14.60
2023-04-23T00:07:07.226Z,14.80
2023-04-23T00:09:36.117Z,19.40
2023-04-23T00:12:04.806Z,17.40
2023-04-23T00:14:33.395Z,17.00
2023-04-23T00:17:01.561Z,17.00
2023-04-23T00:19:29.555Z,18.30
2023-04-23T00:21:57.921Z,14.90
2023-04-23T00:24:26.394Z,14.70
2023-04-23T00:26:54.521Z,16.30
2023-04-23T00:29:23.049Z,14.60
2023-04-23T00:31:51.372Z,17.30
2023-04-23T00:34:19.911Z,19.30
2023-04-23T00:36:51.380Z,17.40
2023-04-23T00:39:19.638Z,22.80
2023-04-23T00:41:51.707Z,19.10
2023-04-23T00:44:20.104Z,17.10
2023-04-23T00:46:48.464Z,19.50
2023-04-23T00:49:18.378Z,19.50
2023-04-23T00:51:47.475Z,19.60
2023-04-23T00:54:15.696Z,21.40
2023-04-23T00:56:43.822Z,22.40
2023-04-23T00:59:12.097Z,20.60
2023-04-23T01:01:41.134Z,21.50
2023-04-23T01:04:09.812Z,18.50
2023-04-23T01:06:39.600Z,18.10
2023-04-23T01:09:10.121Z,15.80
2023-04-23T01:11:43.426Z,16.50
2023-04-23T01:14:12.413Z,16.50
2023-04-23T01:16:41.208Z,20.30
2023-04-23T01:19:11.009Z,19.90
2023-04-23T01:21:42.988Z,20.10
2023-04-23T01:24:11.981Z,19.80
2023-04-23T01:26:40.833Z,18.00
2023-04-23T01:29:10.588Z,18.20
2023-04-23T01:34:08.150Z,16.70
2023-04-23T01:36:36.700Z,15.70
2023-04-23T01:39:05.827Z,17.20
2023-04-23T01:44:02.996Z,18.60
2023-04-23T01:46:31.550Z,17.40
2023-04-23T01:49:00.276Z,14.50
2023-04-23T01:51:30.010Z,16.50
2023-04-23T01:53:58.155Z,14.00
2023-04-23T01:56:28.372Z,18.30
2023-04-23T01:58:57.062Z,17.60
2023-04-23T02:01:25.444Z,17.60
2023-04-23T02:03:54.624Z,15.70
2023-04-23T02:08:51.725Z,14.40
2023-04-23T02:11:20.010Z,16.90
2023-04-23T02:13:48.280Z,16.00
2023-04-23T02:16:18.127Z,17.00
2023-04-23T02:18:46.452Z,14.60
2023-04-23T02:21:14.748Z,15.40
2023-04-23T02:23:43.018Z,19.50
2023-04-23T02:26:11.177Z,17.80
2023-04-23T02:28:39.167Z,19.80
2023-04-23T02:31:07.542Z,19.30
2023-04-23T02:33:35.801Z,14.20
2023-04-23T02:36:04.298Z,13.60
2023-04-23T02:38:32.372Z,16.10
2023-04-23T02:41:00.544Z,13.40
2023-04-23T02:43:29.320Z,17.60
2023-04-23T02:46:00.367Z,16.80
2023-04-23T02:48:29.894Z,21.30
2023-04-23T02:50:58.451Z,19.90
2023-04-23T02:53:26.654Z,23.10
2023-04-23T02:55:54.703Z,19.20
2023-04-23T02:58:25.886Z,20.50
2023-04-23T03:00:54.882Z,21.00
2023-04-23T03:03:26.718Z,24.20
2023-04-23T03:05:55.400Z,19.50
2023-04-23T03:08:23.764Z,19.40
2023-04-23T03:10:51.792Z,23.80
2023-04-23T03:13:19.892Z,16.50
2023-04-23T03:15:48.933Z,16.20
2023-04-23T03:18:17.078Z,20.10
2023-04-23T03:20:47.617Z,19.50
2023-04-23T03:23:16.693Z,21.60
2023-04-23T03:25:45.393Z,26.90
2023-04-23T03:28:13.606Z,20.30
2023-04-23T03:30:42.696Z,23.00
2023-04-23T03:33:12.946Z,23.60
2023-04-23T03:35:41.615Z,28.00
2023-04-23T03:38:13.632Z,26.00
2023-04-23T03:40:42.430Z,24.90
2023-04-23T03:43:20.532Z,25.40
2023-04-23T03:46:11.884Z,26.30
2023-04-23T03:48:41.773Z,22.80
2023-04-23T03:51:14.124Z,29.80
2023-04-23T03:53:49.150Z,23.60
2023-04-23T03:56:34.745Z,27.10
2023-04-23T03:59:15.624Z,22.00
2023-04-23T04:01:44.676Z,22.00
2023-04-23T04:04:12.926Z,25.40
2023-04-23T04:06:41.534Z,28.20
2023-04-23T04:09:09.598Z,21.60
2023-04-23T04:11:37.946Z,25.50
2023-04-23T04:14:06.180Z,23.50
2023-04-23T04:16:34.394Z,25.60
2023-04-23T04:19:03.757Z,21.20
2023-04-23T04:24:11.659Z,22.30
2023-04-23T04:26:40.279Z,19.70
2023-04-23T04:29:17.468Z,18.80
2023-04-23T04:31:48.435Z,18.20
2023-04-23T04:34:18.261Z,18.80
2023-04-23T04:36:46.997Z,17.10
2023-04-23T04:39:15.178Z,19.90
2023-04-23T04:41:43.668Z,21.90
2023-04-23T04:44:11.738Z,19.60
2023-04-23T04:46:40.554Z,18.50
2023-04-23T04:49:12.438Z,17.80
2023-04-23T04:51:41.579Z,17.80
2023-04-23T04:54:09.832Z,14.60
2023-04-23T04:56:37.925Z,15.80
2023-04-23T04:59:06.109Z,20.00
2023-04-23T05:01:34.707Z,16.20
2023-04-23T05:04:03.998Z,16.00
2023-04-23T05:09:00.859Z,16.10
2023-04-23T05:11:30.752Z,15.90
2023-04-23T05:13:59.923Z,12.50
2023-04-23T05:16:28.261Z,15.10
2023-04-23T05:18:56.416Z,14.80
2023-04-23T05:21:24.470Z,14.10
2023-04-23T05:23:52.576Z,14.90
2023-04-23T05:26:20.812Z,14.90
2023-04-23T05:28:49.213Z,16.20
2023-04-23T05:31:17.290Z,17.10
2023-04-23T05:33:50.527Z,16.20
2023-04-23T05:36:19.164Z,14.90
2023-04-23T05:38:48.480Z,15.70
2023-04-23T05:41:16.769Z,15.50
2023-04-23T05:43:53.921Z,17.30
2023-04-23T05:46:22.437Z,15.00
2023-04-23T05:48:50.576Z,17.00
2023-04-23T05:51:19.057Z,15.70
2023-04-23T05:53:47.224Z,13.80
2023-04-23T05:56:15.398Z,17.10
2023-04-23T05:58:43.725Z,14.30
2023-04-23T06:01:12.510Z,18.00
2023-04-23T06:03:45.466Z,16.00
2023-04-23T06:06:14.268Z,14.40
2023-04-23T06:08:42.318Z,17.00
2023-04-23T06:11:11.011Z,16.30
2023-04-23T06:13:43.557Z,19.80
2023-04-23T06:16:12.074Z,15.50
2023-04-23T06:18:40.354Z,20.20
2023-04-23T06:21:09.225Z,17.10
2023-04-23T06:23:37.418Z,18.40
2023-04-23T06:26:05.898Z,13.20
2023-04-23T06:28:34.671Z,13.70
2023-04-23T06:31:22.128Z,13.00
2023-04-23T06:33:50.375Z,12.60
2023-04-23T06:36:18.410Z,15.80
2023-04-23T06:38:49.186Z,12.80
2023-04-23T06:41:17.730Z,13.80
2023-04-23T06:43:46.107Z,12.00
2023-04-23T06:46:32.216Z,14.70
2023-04-23T06:49:00.314Z,14.80
2023-04-23T06:51:28.691Z,14.40
2023-04-23T06:53:56.887Z,14.10
2023-04-23T06:56:26.946Z,17.30
2023-04-23T06:58:55.460Z,14.40
2023-04-23T07:01:23.907Z,18.10
2023-04-23T07:03:54.694Z,13.00
2023-04-23T07:06:23.080Z,17.40
2023-04-23T07:08:51.323Z,16.50
2023-04-23T07:11:19.826Z,19.40
2023-04-23T07:13:48.980Z,14.40
2023-04-23T07:16:18.072Z,19.60
2023-04-23T07:18:47.542Z,15.10
2023-04-23T07:21:16.132Z,14.90
2023-04-23T07:23:44.190Z,14.50
2023-04-23T07:26:12.687Z,16.60
2023-04-23T07:28:40.959Z,17.00
2023-04-23T07:31:09.338Z,15.40
2023-04-23T07:33:37.522Z,14.30
2023-04-23T07:36:05.991Z,18.10
2023-04-23T07:38:34.175Z,16.10
2023-04-23T07:41:02.967Z,16.90
2023-04-23T07:43:31.090Z,14.80
2023-04-23T07:45:59.317Z,19.10
2023-04-23T07:48:27.334Z,17.20
2023-04-23T07:50:55.859Z,20.30
2023-04-23T07:53:24.025Z,15.00
2023-04-23T07:55:52.605Z,19.30
2023-04-23T07:58:20.781Z,19.00
2023-04-23T08:00:48.872Z,17.60
2023-04-23T08:03:17.016Z,18.00
2023-04-23T08:05:45.686Z,17.90
2023-04-23T08:08:14.044Z,18.80
2023-04-23T08:10:42.269Z,19.70
2023-04-23T08:13:11.221Z,16.20
2023-04-23T08:15:39.572Z,16.60
2023-04-23T08:18:07.820Z,18.40
2023-04-23T08:20:38.141Z,16.50
2023-04-23T08:23:07.177Z,19.80
2023-04-23T08:25:35.292Z,20.90
2023-04-23T08:28:03.937Z,16.30
2023-04-23T08:30:32.220Z,20.90
2023-04-23T08:33:00.592Z,23.30
2023-04-23T08:35:29.027Z,23.20
2023-04-23T08:37:57.100Z,22.80
2023-04-23T08:40:30.347Z,22.80
2023-04-23T08:43:02.872Z,19.10
2023-04-23T08:45:31.154Z,17.30
2023-04-23T08:48:02.524Z,16.00
2023-04-23T08:50:31.308Z,13.10
2023-04-23T08:52:59.561Z,20.80
2023-04-23T08:55:27.746Z,23.30
2023-04-23T08:57:58.553Z,17.20
2023-04-23T09:00:26.973Z,17.80
2023-04-23T09:02:56.228Z,17.60
2023-04-23T09:05:24.838Z,16.70
2023-04-23T09:07:54.034Z,12.90
2023-04-23T09:12:51.082Z,14.90
2023-04-23T09:15:19.385Z,18.60
2023-04-23T09:17:48.508Z,15.10
2023-04-23T09:22:48.332Z,16.90
2023-04-23T09:25:21.860Z,14.60
2023-04-23T09:27:51.609Z,14.60
2023-04-23T09:30:20.243Z,16.20
2023-04-23T09:32:49.524Z,13.70
2023-04-23T09:35:20.245Z,20.20
2023-04-23T09:37:52.552Z,14.10
2023-04-23T09:40:25.142Z,8.20
2023-04-23T09:42:56.555Z,13.50
2023-04-23T09:45:27.538Z,13.80
2023-04-23T09:47:57.951Z,11.60
2023-04-23T09:50:38.594Z,15.10
2023-04-23T09:53:08.793Z,14.10
2023-04-23T09:55:39.464Z,20.20
2023-04-23T09:58:12.620Z,15.70
2023-04-23T10:00:41.518Z,15.70
2023-04-23T10:03:11.305Z,21.30
2023-04-23T10:08:14.078Z,14.50
2023-04-23T10:10:57.605Z,10.10
2023-04-23T10:13:32.373Z,11.30
2023-04-23T10:16:14.052Z,16.60
2023-04-23T10:18:47.845Z,9.80
2023-04-23T10:21:17.694Z,8.60
2023-04-23T10:23:48.497Z,9.60
2023-04-23T10:26:17.419Z,7.30
2023-04-23T10:28:49.094Z,9.30
2023-04-23T10:31:19.890Z,6.90
2023-04-23T10:36:25.924Z,7.60
2023-04-23T10:38:59.024Z,7.90
2023-04-23T10:41:35.953Z,8.70
2023-04-23T10:44:05.643Z,8.40
2023-04-23T10:46:37.144Z,7.50
2023-04-23T10:49:17.081Z,7.30
2023-04-23T10:54:19.983Z,8.60
2023-04-23T10:56:59.304Z,9.60
2023-04-23T10:59:32.180Z,8.70
2023-04-23T11:02:10.758Z,8.00
2023-04-23T11:07:14.132Z,10.90
2023-04-23T11:09:49.462Z,6.90
2023-04-23T11:12:40.034Z,8.30
2023-04-23T11:15:16.148Z,11.80
2023-04-23T11:17:44.269Z,7.40
2023-04-23T11:20:19.669Z,8.30
2023-04-23T11:22:50.352Z,8.80
2023-04-23T11:25:25.318Z,8.30
2023-04-23T11:27:55.870Z,8.40
2023-04-23T11:30:30.880Z,8.70
2023-04-23T11:33:01.536Z,9.80
2023-04-23T11:35:33.584Z,7.00
2023-04-23T11:38:08.324Z,7.50
2023-04-23T11:40:37.443Z,8.10
2023-04-23T11:43:05.587Z,7.10
2023-04-23T11:45:33.874Z,7.40
2023-04-23T11:48:02.062Z,8.20
2023-04-23T11:50:33.719Z,9.10
2023-04-23T11:53:07.693Z,7.20
2023-04-23T11:55:35.871Z,9.00
2023-04-23T11:58:04.444Z,8.60
2023-04-23T12:00:32.524Z,7.20
2023-04-23T12:03:03.539Z,8.90
2023-04-23T12:05:39.299Z,6.60
2023-04-23T12:08:16.750Z,13.20
2023-04-23T12:10:52.988Z,7.30
2023-04-23T12:13:24.307Z,9.40
2023-04-23T12:15:56.672Z,9.10
2023-04-23T12:18:44.197Z,10.50
2023-04-23T12:21:13.620Z,8.00
2023-04-23T12:23:44.784Z,9.20
2023-04-23T12:26:15.783Z,7.00
2023-04-23T12:28:58.123Z,7.70
2023-04-23T12:31:30.624Z,8.70
2023-04-23T12:34:02.347Z,7.20
2023-04-23T12:36:40.930Z,8.70
2023-04-23T12:39:31.314Z,7.60
2023-04-23T12:42:03.172Z,12.20
2023-04-23T12:44:36.129Z,9.00
2023-04-23T12:47:05.976Z,11.40
2023-04-23T12:49:36.086Z,10.00
2023-04-23T12:52:07.920Z,13.80
2023-04-23T12:54:38.320Z,7.10
2023-04-23T12:57:08.277Z,8.50
2023-04-23T12:59:36.419Z,6.40
2023-04-23T13:02:06.953Z,9.40
2023-04-23T13:04:36.759Z,10.60
2023-04-23T13:07:05.031Z,9.20
2023-04-23T13:09:35.967Z,8.30
2023-04-23T13:12:04.561Z,8.50
2023-04-23T13:14:32.782Z,10.10
2023-04-23T13:17:01.212Z,9.80
2023-04-23T13:19:29.657Z,8.00
2023-04-23T13:21:57.684Z,8.50
2023-04-23T13:24:25.719Z,8.30
2023-04-23T13:26:53.991Z,7.40
2023-04-23T13:29:22.183Z,6.90
2023-04-23T13:31:51.437Z,8.10
2023-04-23T13:34:19.770Z,7.70
2023-04-23T13:36:48.041Z,9.40
2023-04-23T13:39:16.211Z,6.80
2023-04-23T13:41:46.494Z,8.40
2023-04-23T13:44:15.793Z,6.00
2023-04-23T13:46:43.915Z,7.60
2023-04-23T13:49:12.295Z,6.30
2023-04-23T13:51:40.467Z,6.30
2023-04-23T13:54:08.413Z,6.50
2023-04-23T13:56:37.226Z,8.60
2023-04-23T13:59:18.797Z,6.50
2023-04-23T14:01:51.496Z,10.80
2023-04-23T14:04:24.557Z,7.00
2023-04-23T14:06:53.078Z,8.00
2023-04-23T14:09:22.654Z,7.90
2023-04-23T14:11:50.921Z,8.40
2023-04-23T14:14:19.293Z,8.30
2023-04-23T14:16:47.407Z,6.40
2023-04-23T14:19:15.684Z,6.20
2023-04-23T14:21:44.230Z,8.10
2023-04-23T14:24:39.170Z,6.00
2023-04-23T14:27:07.137Z,7.50
2023-04-23T14:29:41.325Z,10.30
2023-04-23T14:32:09.645Z,7.10
2023-04-23T14:34:37.697Z,7.10
2023-04-23T14:37:06.220Z,7.80
2023-04-23T14:39:34.985Z,7.60
2023-04-23T14:42:03.655Z,9.60
2023-04-23T14:44:31.834Z,9.40
2023-04-23T14:46:59.829Z,9.00
2023-04-23T14:49:27.894Z,11.60
2023-04-23T14:51:57.841Z,11.00
2023-04-23T14:54:26.173Z,9.30
2023-04-23T14:56:54.445Z,6.20
2023-04-23T14:59:23.748Z,8.60
2023-04-23T15:01:51.986Z,5.90
2023-04-23T15:04:20.306Z,8.70
2023-04-23T15:06:48.486Z,9.50
2023-04-23T15:09:17.056Z,5.20
2023-04-23T15:11:45.641Z,6.50
2023-04-23T15:14:20.790Z,9.00
2023-04-23T15:16:50.025Z,6.80
2023-04-23T15:19:19.183Z,6.10
2023-04-23T15:21:48.120Z,7.00
2023-04-23T15:29:17.003Z,9.20
2023-04-23T15:31:45.190Z,8.90
2023-04-23T15:34:13.442Z,15.60
2023-04-23T15:36:41.632Z,6.70
2023-04-23T15:39:09.802Z,7.90
2023-04-23T15:41:40.513Z,6.00
2023-04-23T15:44:13.285Z,10.00
2023-04-23T15:46:41.513Z,7.60
2023-04-23T15:49:09.662Z,11.90
2023-04-23T15:51:37.796Z,7.00
2023-04-23T15:54:08.705Z,8.50
2023-04-23T15:56:37.292Z,7.60
2023-04-23T15:59:06.257Z,5.90
2023-04-23T16:01:34.565Z,6.60
2023-04-23T16:06:34.630Z,12.60
2023-04-23T16:09:06.890Z,9.90
2023-04-23T16:11:39.101Z,9.30
2023-04-23T16:14:09.593Z,9.50
2023-04-23T16:16:38.881Z,10.90
2023-04-23T16:19:07.202Z,9.30
2023-04-23T16:21:35.702Z,8.80
2023-04-23T16:24:04.691Z,11.90
2023-04-23T16:31:32.111Z,7.00
2023-04-23T16:34:00.573Z,6.70
2023-04-23T16:36:28.871Z,10.50
2023-04-23T16:38:57.325Z,9.80
2023-04-23T16:41:25.594Z,7.30
2023-04-23T16:43:53.878Z,6.60
2023-04-23T16:46:22.129Z,6.20
2023-04-23T16:48:50.845Z,8.80
2023-04-23T16:51:18.925Z,7.50
2023-04-23T16:53:46.990Z,7.20
2023-04-23T16:56:15.203Z,7.40
2023-04-23T16:58:43.665Z,9.50
2023-04-23T17:01:12.048Z,5.50
2023-04-23T17:03:40.810Z,5.90
2023-04-23T17:06:11.268Z,7.00
2023-04-23T17:08:39.918Z,8.10
2023-04-23T17:11:08.391Z,7.90
2023-04-23T17:13:36.472Z,7.30
2023-04-23T17:16:04.457Z,7.90
2023-04-23T17:18:32.605Z,6.00
2023-04-23T17:21:00.883Z,11.20
2023-04-23T17:23:29.005Z,15.00
2023-04-23T17:25:57.130Z,6.90
2023-04-23T17:28:25.509Z,6.70
2023-04-23T17:30:55.881Z,7.10
2023-04-23T17:33:24.536Z,8.20
2023-04-23T17:35:53.821Z,8.50
2023-04-23T17:38:22.446Z,8.50
2023-04-23T17:40:52.583Z,6.60
2023-04-23T17:43:21.670Z,10.80
2023-04-23T17:45:49.981Z,7.00
2023-04-23T17:48:18.891Z,10.40
2023-04-23T17:50:47.994Z,10.10
2023-04-23T17:53:16.525Z,7.90
2023-04-23T17:55:46.088Z,7.00
2023-04-23T17:58:14.289Z,6.80
2023-04-23T18:00:43.350Z,10.60
2023-04-23T18:03:16.481Z,7.10
2023-04-23T18:05:45.440Z,7.40
2023-04-23T18:08:16.384Z,7.70
2023-04-23T18:10:46.086Z,8.50
2023-04-23T18:13:14.765Z,10.50
2023-04-23T18:15:43.046Z,8.70
2023-04-23T18:18:11.484Z,14.90
2023-04-23T18:20:40.410Z,7.40
2023-04-23T18:23:09.818Z,8.70
2023-04-23T18:25:37.801Z,6.70
2023-04-23T18:28:05.956Z,9.10
2023-04-23T18:30:36.818Z,7.10
2023-04-23T18:33:21.517Z,9.60
2023-04-23T18:35:49.737Z,9.60
2023-04-23T18:38:37.577Z,7.60
2023-04-23T18:41:05.952Z,10.70
2023-04-23T18:43:34.736Z,13.00
2023-04-23T18:46:03.180Z,12.70
2023-04-23T18:48:34.382Z,10.20
2023-04-23T18:51:13.516Z,9.60
2023-04-23T18:56:09.644Z,8.40
2023-04-23T18:58:37.716Z,10.50
2023-04-23T19:01:06.172Z,7.50
2023-04-23T19:03:34.977Z,7.90
2023-04-23T19:06:07.674Z,7.90
2023-04-23T19:08:36.250Z,8.60
2023-04-23T19:11:05.056Z,9.20
2023-04-23T19:13:33.161Z,8.50
2023-04-23T19:16:01.514Z,8.70
2023-04-23T19:18:29.766Z,7.00
2023-04-23T19:20:58.502Z,8.30
2023-04-23T19:23:26.788Z,7.50
2023-04-23T19:25:55.514Z,7.60
2023-04-23T19:30:55.792Z,8.40
2023-04-23T19:33:24.060Z,8.30
2023-04-23T19:35:55.357Z,8.30
2023-04-23T19:38:23.426Z,8.80
2023-04-23T19:40:51.832Z,8.80
2023-04-23T19:43:20.211Z,8.30
2023-04-23T19:45:48.163Z,9.10
2023-04-23T19:48:16.354Z,9.70
2023-04-23T19:50:44.434Z,8.30
2023-04-23T19:53:12.890Z,7.70
2023-04-23T19:55:41.350Z,9.40
2023-04-23T19:58:09.617Z,8.10
2023-04-23T20:00:40.330Z,9.90
2023-04-23T20:03:09.790Z,9.00
2023-04-23T20:05:38.603Z,8.60
2023-04-23T20:08:11.200Z,8.00
2023-04-23T20:10:39.253Z,9.40
2023-04-23T20:13:07.831Z,8.20
2023-04-23T20:15:36.838Z,8.00
2023-04-23T20:18:05.739Z,11.20
2023-04-23T20:20:34.147Z,10.70
2023-04-23T20:23:02.370Z,8.00
2023-04-23T20:25:32.190Z,7.30
2023-04-23T20:28:08.344Z,12.20
2023-04-23T20:30:37.232Z,10.00
2023-04-23T20:33:06.163Z,7.70
2023-04-23T20:35:36.345Z,9.20
2023-04-23T20:38:04.523Z,9.20
2023-04-23T20:40:34.642Z,8.70
2023-04-23T20:43:04.694Z,8.10
2023-04-23T20:45:34.793Z,8.30
2023-04-23T20:48:03.768Z,8.00
2023-04-23T20:50:32.856Z,9.80
2023-04-23T20:53:01.093Z,10.00
2023-04-23T20:55:29.193Z,10.10
2023-04-23T20:57:57.508Z,8.00
2023-04-23T21:00:27.903Z,8.90
2023-04-23T21:02:56.103Z,7.80
2023-04-23T21:05:24.309Z,8.30
2023-04-23T21:07:53.079Z,7.90
2023-04-23T21:10:21.355Z,7.90
2023-04-23T21:12:49.646Z,9.10
2023-04-23T21:15:18.606Z,9.40
2023-04-23T21:17:46.589Z,7.20
2023-04-23T21:20:14.815Z,8.30
2023-04-23T21:22:43.044Z,8.40
2023-04-23T21:25:11.112Z,8.30
2023-04-23T21:27:39.689Z,6.80
2023-04-23T21:30:21.277Z,8.30
2023-04-23T21:32:52.163Z,9.40
2023-04-23T21:35:20.640Z,6.80
2023-04-23T21:37:48.775Z,8.20
2023-04-23T21:40:16.853Z,7.40
2023-04-23T21:42:46.374Z,9.30
2023-04-23T21:45:14.618Z,7.20
2023-04-23T21:47:42.871Z,7.50
2023-04-23T21:50:11.600Z,9.60
2023-04-23T21:52:43.144Z,9.20
2023-04-23T21:55:13.373Z,9.00
2023-04-23T21:57:41.487Z,9.50
2023-04-23T22:00:13.832Z,7.80
2023-04-23T22:02:48.257Z,7.00
2023-04-23T22:05:21.314Z,7.20
2023-04-23T22:07:53.604Z,7.60
2023-04-23T22:10:23.647Z,9.00
2023-04-23T22:12:52.128Z,8.10
2023-04-23T22:15:20.765Z,8.30
2023-04-23T22:17:50.763Z,9.20
2023-04-23T22:20:19.476Z,8.50
2023-04-23T22:22:47.544Z,9.10
2023-04-23T22:25:17.561Z,10.30
2023-04-23T22:27:45.677Z,6.90
2023-04-23T22:30:14.523Z,8.00
2023-04-23T22:32:42.738Z,9.90
2023-04-23T22:35:11.046Z,6.60
2023-04-23T22:37:39.767Z,8.00
2023-04-23T22:40:09.657Z,7.20
2023-04-23T22:42:37.876Z,7.00
2023-04-23T22:45:07.200Z,7.60
2023-04-23T22:47:35.375Z,8.80
2023-04-23T22:50:04.114Z,9.80
2023-04-23T22:52:32.820Z,7.10
2023-04-23T22:55:01.084Z,8.40
2023-04-23T22:57:29.563Z,8.60
2023-04-23T22:59:57.844Z,7.70
2023-04-23T23:02:26.948Z,8.30
2023-04-23T23:04:56.251Z,9.10
2023-04-23T23:07:24.308Z,8.00
2023-04-23T23:09:52.388Z,8.80
2023-04-23T23:12:20.522Z,7.80
2023-04-23T23:14:48.483Z,9.60
2023-04-23T23:17:16.800Z,8.70
2023-04-23T23:19:45.092Z,7.20
2023-04-23T23:22:13.664Z,9.00
2023-04-23T23:24:41.699Z,6.90
2023-04-23T23:27:09.908Z,9.30
2023-04-23T23:29:38.128Z,7.90
2023-04-23T23:32:06.256Z,9.90
2023-04-23T23:34:34.536Z,9.70
2023-04-23T23:37:02.708Z,8.70
2023-04-23T23:39:30.882Z,8.00
2023-04-23T23:41:59.852Z,7.70
2023-04-23T23:44:28.156Z,7.20
2023-04-23T23:46:56.413Z,7.60
2023-04-23T23:49:24.722Z,7.50
2023-04-23T23:51:52.881Z,7.30
2023-04-23T23:54:20.953Z,7.30
2023-04-23T23:56:48.981Z,8.10
2023-04-23T23:59:17.418Z,9.20
